createdAt,value
2023-03-06T00:01:25.562Z,-2.50
2023-03-06T00:03:57.373Z,-2.50
2023-03-06T00:06:29.189Z,-2.50
2023-03-06T00:09:00.954Z,-2.50
2023-03-06T00:11:32.770Z,-2.50
2023-03-06T00:14:04.794Z,-2.60
2023-03-06T00:16:36.671Z,-2.60
2023-03-06T00:19:08.495Z,-2.60
2023-03-06T00:21:41.091Z,-2.60
2023-03-06T00:24:12.866Z,-2.60
2023-03-06T00:26:44.697Z,-2.70
2023-03-06T00:29:16.550Z,-2.70
2023-03-06T00:31:48.482Z,-2.70
2023-03-06T00:34:20.270Z,-2.70
2023-03-06T00:36:52.442Z,-2.70
2023-03-06T00:39:24.403Z,-2.80
2023-03-06T00:41:56.434Z,-2.80
2023-03-06T00:44:28.236Z,-2.80
2023-03-06T00:47:00.069Z,-2.80
2023-03-06T00:49:31.865Z,-2.70
2023-03-06T00:52:06.156Z,-2.70
2023-03-06T00:54:37.911Z,-2.80
2023-03-06T00:57:09.747Z,-2.80
2023-03-06T00:59:41.650Z,-2.80
2023-03-06T01:02:13.563Z,-2.80
2023-03-06T01:04:45.406Z,-2.80
2023-03-06T01:07:17.332Z,-2.80
2023-03-06T01:09:49.171Z,-2.80
2023-03-06T01:12:23.397Z,-2.90
2023-03-06T01:14:55.350Z,-2.90
2023-03-06T01:17:27.149Z,-2.90
2023-03-06T01:19:59.109Z,-3.00
2023-03-06T01:22:30.957Z,-2.90
2023-03-06T01:25:02.713Z,-2.90
2023-03-06T01:27:34.620Z,-2.90
2023-03-06T01:30:06.738Z,-2.90
2023-03-06T01:32:38.653Z,-2.90
2023-03-06T01:35:10.992Z,-2.90
2023-03-06T01:37:42.832Z,-2.90
2023-03-06T01:40:14.622Z,-3.00
2023-03-06T01:42:48.271Z,-3.00
2023-03-06T01:45:20.050Z,-3.00
2023-03-06T01:47:51.872Z,-3.00
2023-03-06T01:50:23.741Z,-3.00
2023-03-06T01:52:58.122Z,-3.00
2023-03-06T01:55:32.626Z,-3.10
2023-03-06T01:58:07.587Z,-3.10
2023-03-06T02:00:39.439Z,-3.10
2023-03-06T02:03:13.961Z,-3.10
2023-03-06T02:05:45.793Z,-3.10
2023-03-06T02:08:19.151Z,-3.10
2023-03-06T02:11:11.242Z,-3.10
2023-03-06T02:13:43.661Z,-3.20
2023-03-06T02:16:19.107Z,-3.10
2023-03-06T02:18:51.753Z,-3.10
2023-03-06T02:21:25.656Z,-3.20
2023-03-06T02:23:57.564Z,-3.20
2023-03-06T02:26:29.684Z,-3.20
2023-03-06T02:29:03.017Z,-3.20
2023-03-06T02:31:35.710Z,-3.10
2023-03-06T02:34:09.173Z,-3.10
2023-03-06T02:36:42.540Z,-3.10
2023-03-06T02:39:15.020Z,-3.10
2023-03-06T02:41:46.775Z,-3.20
2023-03-06T02:44:18.614Z,-3.20
2023-03-06T02:46:50.417Z,-3.20
2023-03-06T02:49:26.430Z,-3.10
2023-03-06T02:51:58.585Z,-3.10
2023-03-06T02:54:30.509Z,-3.10
2023-03-06T02:57:02.359Z,-3.10
2023-03-06T02:59:34.228Z,-3.10
2023-03-06T03:02:06.022Z,-3.10
2023-03-06T03:04:37.927Z,-3.10
2023-03-06T03:07:09.840Z,-3.10
2023-03-06T03:09:41.703Z,-3.20
2023-03-06T03:12:13.530Z,-3.20
2023-03-06T03:14:45.429Z,-3.20
2023-03-06T03:17:17.231Z,-3.20
2023-03-06T03:19:49.232Z,-3.20
2023-03-06T03:22:21.105Z,-3.20
2023-03-06T03:24:53.096Z,-3.20
2023-03-06T03:27:24.893Z,-3.20
2023-03-06T03:29:57.504Z,-3.30
2023-03-06T03:32:29.502Z,-3.20
2023-03-06T03:35:01.548Z,-3.30
2023-03-06T03:37:34.797Z,-3.30
2023-03-06T03:40:07.421Z,-3.30
2023-03-06T03:42:39.480Z,-3.30
2023-03-06T03:45:11.411Z,-3.30
2023-03-06T03:47:43.257Z,-3.40
2023-03-06T03:50:15.045Z,-3.30
2023-03-06T03:52:49.116Z,-3.40
2023-03-06T03:55:20.999Z,-3.50
2023-03-06T03:57:52.816Z,-3.50
2023-03-06T04:00:24.732Z,-3.50
2023-03-06T04:02:56.528Z,-3.50
2023-03-06T04:05:28.382Z,-3.50
2023-03-06T04:08:05.654Z,-3.50
2023-03-06T04:10:38.814Z,-3.50
2023-03-06T04:13:11.095Z,-3.50
2023-03-06T04:15:42.937Z,-3.50
2023-03-06T04:18:16.700Z,-3.50
2023-03-06T04:20:48.973Z,-3.50
2023-03-06T04:23:21.213Z,-3.50
2023-03-06T04:25:55.136Z,-3.50
2023-03-06T04:28:27.343Z,-3.50
2023-03-06T04:30:59.169Z,-3.50
2023-03-06T04:33:31.148Z,-3.50
2023-03-06T04:36:03.030Z,-3.60
2023-03-06T04:38:34.929Z,-3.50
2023-03-06T04:41:06.770Z,-3.60
2023-03-06T04:43:39.642Z,-3.60
2023-03-06T04:46:11.522Z,-3.60
2023-03-06T04:48:43.432Z,-3.60
2023-03-06T04:51:15.472Z,-3.60
2023-03-06T04:53:47.355Z,-3.60
2023-03-06T04:56:19.208Z,-3.70
2023-03-06T04:58:51.117Z,-3.60
2023-03-06T05:01:23.059Z,-3.60
2023-03-06T05:03:54.824Z,-3.70
2023-03-06T05:06:26.627Z,-3.70
2023-03-06T05:08:58.684Z,-3.70
2023-03-06T05:11:30.554Z,-3.70
2023-03-06T05:14:04.693Z,-3.70
2023-03-06T05:16:36.578Z,-3.60
2023-03-06T05:19:08.401Z,-3.70
2023-03-06T05:21:40.184Z,-3.70
2023-03-06T05:24:11.957Z,-3.70
2023-03-06T05:26:46.448Z,-3.70
2023-03-06T05:29:18.230Z,-3.70
2023-03-06T05:31:50.140Z,-3.70
2023-03-06T05:34:24.427Z,-3.70
2023-03-06T05:36:56.218Z,-3.70
2023-03-06T05:39:28.498Z,-3.70
2023-03-06T05:42:00.349Z,-3.70
2023-03-06T05:44:33.172Z,-3.60
2023-03-06T05:47:05.186Z,-3.70
2023-03-06T05:49:36.979Z,-3.60
2023-03-06T05:52:09.781Z,-3.60
2023-03-06T05:54:41.792Z,-3.60
2023-03-06T05:57:15.905Z,-3.60
2023-03-06T05:59:48.547Z,-3.50
2023-03-06T06:02:25.033Z,-3.50
2023-03-06T06:04:56.858Z,-3.40
2023-03-06T06:07:28.727Z,-3.40
2023-03-06T06:10:03.932Z,-3.30
2023-03-06T06:12:35.931Z,-3.30
2023-03-06T06:15:07.938Z,-3.20
2023-03-06T06:17:39.930Z,-3.20
2023-03-06T06:20:12.018Z,-3.10
2023-03-06T06:22:43.921Z,-3.00
2023-03-06T06:25:18.099Z,-3.00
2023-03-06T06:27:49.959Z,-2.90
2023-03-06T06:30:21.864Z,-2.80
2023-03-06T06:32:53.705Z,-2.70
2023-03-06T06:35:25.934Z,-2.60
2023-03-06T06:37:57.828Z,-2.20
2023-03-06T06:40:29.770Z,-1.50
2023-03-06T06:43:01.786Z,0.00
2023-03-06T06:45:33.593Z,2.30
2023-03-06T06:48:07.832Z,4.30
2023-03-06T06:50:39.674Z,5.60
2023-03-06T06:53:11.508Z,6.70
2023-03-06T06:55:43.298Z,7.60
2023-03-06T06:58:15.097Z,8.60
2023-03-06T07:00:46.853Z,9.20
2023-03-06T07:03:19.756Z,9.90
2023-03-06T07:05:55.094Z,10.30
2023-03-06T07:08:30.066Z,10.30
2023-03-06T07:11:06.164Z,10.50
2023-03-06T07:13:38.031Z,11.00
2023-03-06T07:16:09.853Z,11.30
2023-03-06T07:18:42.043Z,11.30
2023-03-06T07:21:13.954Z,10.90
2023-03-06T07:23:45.812Z,10.80
2023-03-06T07:26:17.635Z,11.00
2023-03-06T07:28:53.189Z,11.00
2023-03-06T07:31:26.106Z,11.40
2023-03-06T07:33:58.071Z,11.50
2023-03-06T07:36:30.060Z,10.60
2023-03-06T07:39:01.969Z,9.20
2023-03-06T07:41:33.880Z,8.00
2023-03-06T07:44:05.736Z,6.70
2023-03-06T07:46:39.964Z,5.70
2023-03-06T07:49:12.111Z,4.90
2023-03-06T07:51:44.376Z,4.30
2023-03-06T07:54:16.205Z,3.90
2023-03-06T07:56:50.225Z,3.50
2023-03-06T07:59:22.071Z,3.20
2023-03-06T08:01:54.530Z,3.00
2023-03-06T08:04:28.283Z,2.90
2023-03-06T08:07:00.958Z,2.90
2023-03-06T08:09:34.031Z,2.90
2023-03-06T08:12:05.951Z,3.00
2023-03-06T08:14:37.835Z,3.00
2023-03-06T08:17:09.657Z,3.00
2023-03-06T08:19:41.481Z,2.90
2023-03-06T08:22:14.103Z,2.80
2023-03-06T08:24:45.974Z,2.70
2023-03-06T08:27:20.018Z,2.60
2023-03-06T08:29:51.897Z,2.60
2023-03-06T08:32:23.786Z,2.50
2023-03-06T08:34:55.752Z,2.50
2023-03-06T08:37:27.735Z,2.70
2023-03-06T08:39:59.669Z,2.80
2023-03-06T08:42:32.107Z,2.80
2023-03-06T08:45:06.712Z,2.80
2023-03-06T08:47:38.545Z,2.90
2023-03-06T08:50:10.878Z,3.00
2023-03-06T08:52:45.140Z,3.00
2023-03-06T08:55:19.176Z,3.10
2023-03-06T08:57:50.949Z,3.10
2023-03-06T09:00:23.053Z,3.20
2023-03-06T09:02:57.338Z,3.20
2023-03-06T09:05:29.231Z,3.30
2023-03-06T09:08:01.146Z,3.30
2023-03-06T09:10:33.025Z,3.40
2023-03-06T09:13:04.812Z,3.50
2023-03-06T09:15:36.733Z,3.60
2023-03-06T09:18:08.964Z,3.60
2023-03-06T09:20:40.968Z,3.60
2023-03-06T09:23:15.257Z,3.80
2023-03-06T09:25:51.840Z,3.80
2023-03-06T09:28:24.052Z,3.90
2023-03-06T09:30:56.127Z,3.90
2023-03-06T09:33:28.802Z,3.90
2023-03-06T09:36:02.924Z,4.00
2023-03-06T09:38:34.728Z,4.10
2023-03-06T09:41:23.100Z,4.10
2023-03-06T09:44:05.312Z,4.10
2023-03-06T09:46:55.909Z,3.90
2023-03-06T09:49:29.319Z,3.80
2023-03-06T09:52:07.272Z,3.90
2023-03-06T09:54:46.965Z,3.80
2023-03-06T09:57:23.716Z,3.80
2023-03-06T10:00:02.044Z,3.60
2023-03-06T10:02:44.613Z,3.50
2023-03-06T10:05:27.446Z,3.20
2023-03-06T10:08:05.462Z,3.00
2023-03-06T10:10:58.429Z,3.00
2023-03-06T10:13:38.422Z,3.00
2023-03-06T10:16:15.403Z,3.00
2023-03-06T10:18:47.429Z,3.10
2023-03-06T10:21:19.672Z,3.10
2023-03-06T10:24:00.756Z,3.20
2023-03-06T10:26:37.935Z,3.20
2023-03-06T10:29:15.787Z,3.20
2023-03-06T10:31:51.480Z,3.20
2023-03-06T10:34:24.770Z,3.00
2023-03-06T10:36:58.541Z,2.90
2023-03-06T10:39:30.385Z,2.70
2023-03-06T10:42:02.213Z,2.80
2023-03-06T10:44:34.013Z,2.80
2023-03-06T10:47:27.195Z,2.80
2023-03-06T10:50:02.970Z,2.80
2023-03-06T10:52:36.771Z,2.80
2023-03-06T10:55:23.958Z,2.90
2023-03-06T10:57:58.172Z,3.10
2023-03-06T11:00:36.188Z,3.30
2023-03-06T11:03:21.978Z,3.50
2023-03-06T11:06:04.956Z,3.70
2023-03-06T11:08:37.259Z,3.70
2023-03-06T11:11:13.359Z,3.70
2023-03-06T11:13:55.608Z,3.50
2023-03-06T11:16:30.694Z,3.20
2023-03-06T11:19:05.963Z,3.10
2023-03-06T11:21:40.104Z,3.00
2023-03-06T11:24:18.689Z,3.00
2023-03-06T11:26:56.235Z,3.00
2023-03-06T11:29:35.277Z,2.90
2023-03-06T11:32:25.570Z,2.80
2023-03-06T11:34:58.999Z,2.90
2023-03-06T11:37:40.679Z,3.00
2023-03-06T11:40:20.681Z,3.10
2023-03-06T11:43:04.453Z,3.20
2023-03-06T11:45:46.694Z,3.30
2023-03-06T11:48:42.437Z,3.30
2023-03-06T11:51:17.240Z,3.30
2023-03-06T11:53:49.131Z,3.30
2023-03-06T11:56:31.899Z,3.30
2023-03-06T11:59:23.066Z,3.30
2023-03-06T12:02:03.960Z,3.40
2023-03-06T12:04:39.379Z,3.40
2023-03-06T12:07:11.144Z,3.40
2023-03-06T12:09:46.655Z,3.30
2023-03-06T12:12:30.806Z,3.30
2023-03-06T12:15:05.677Z,3.30
2023-03-06T12:17:52.475Z,3.20
2023-03-06T12:20:24.382Z,3.10
2023-03-06T12:23:14.830Z,3.10
2023-03-06T12:25:58.115Z,3.10
2023-03-06T12:28:52.828Z,3.00
2023-03-06T12:31:25.100Z,2.90
2023-03-06T12:33:58.533Z,2.90
2023-03-06T12:36:38.247Z,2.90
2023-03-06T12:39:19.111Z,2.80
2023-03-06T12:41:50.859Z,2.80
2023-03-06T12:44:31.907Z,2.80
2023-03-06T12:47:08.110Z,2.80
2023-03-06T12:49:44.160Z,2.80
2023-03-06T12:52:30.302Z,2.80
2023-03-06T12:55:05.826Z,2.90
2023-03-06T12:57:37.613Z,3.00
2023-03-06T13:00:31.670Z,3.00
2023-03-06T13:03:14.676Z,3.10
2023-03-06T13:06:04.957Z,3.20
2023-03-06T13:08:51.021Z,3.20
2023-03-06T13:11:25.997Z,3.20
2023-03-06T13:14:00.053Z,3.30
2023-03-06T13:16:33.071Z,3.30
2023-03-06T13:19:12.201Z,3.30
2023-03-06T13:21:59.325Z,3.40
2023-03-06T13:24:32.744Z,3.40
2023-03-06T13:27:04.857Z,3.50
2023-03-06T13:29:36.627Z,3.60
2023-03-06T13:32:17.060Z,3.70
2023-03-06T13:34:50.200Z,3.80
2023-03-06T13:37:25.218Z,3.90
2023-03-06T13:39:57.384Z,3.90
2023-03-06T13:42:31.030Z,3.80
2023-03-06T13:45:08.002Z,3.70
2023-03-06T13:48:21.454Z,3.50
2023-03-06T13:50:52.674Z,3.30
2023-03-06T13:53:27.459Z,3.80
2023-03-06T13:56:01.425Z,4.10
2023-03-06T13:58:51.760Z,4.50
2023-03-06T14:01:26.426Z,4.60
2023-03-06T14:04:16.985Z,4.70
2023-03-06T14:07:04.415Z,4.50
2023-03-06T14:09:37.354Z,4.20
2023-03-06T14:12:15.142Z,4.20
2023-03-06T14:15:09.965Z,3.90
2023-03-06T14:17:47.868Z,3.60
2023-03-06T14:20:20.787Z,3.10
2023-03-06T14:23:12.684Z,3.00
2023-03-06T14:25:48.273Z,2.90
2023-03-06T14:28:31.662Z,2.80
2023-03-06T14:31:05.033Z,2.70
2023-03-06T14:33:49.875Z,2.50
2023-03-06T14:36:24.438Z,2.50
2023-03-06T14:39:01.162Z,2.50
2023-03-06T14:41:41.268Z,2.50
2023-03-06T14:44:18.361Z,2.70
2023-03-06T14:46:52.968Z,2.80
2023-03-06T14:49:26.070Z,2.70
2023-03-06T14:52:00.894Z,2.70
2023-03-06T14:54:34.654Z,2.60
2023-03-06T14:57:14.092Z,2.40
2023-03-06T14:59:56.142Z,2.30
2023-03-06T15:02:33.025Z,2.30
2023-03-06T15:05:11.180Z,2.30
2023-03-06T15:07:43.524Z,2.10
2023-03-06T15:10:32.383Z,2.00
2023-03-06T15:13:24.385Z,1.90
2023-03-06T15:16:01.120Z,1.90
2023-03-06T15:18:56.806Z,1.80
2023-03-06T15:21:32.420Z,1.70
2023-03-06T15:24:26.803Z,1.70
2023-03-06T15:27:01.229Z,1.50
2023-03-06T15:29:34.119Z,1.50
2023-03-06T15:32:13.379Z,1.40
2023-03-06T15:34:45.381Z,1.30
2023-03-06T15:37:26.877Z,1.20
2023-03-06T15:40:04.454Z,1.10
2023-03-06T15:42:36.918Z,0.90
2023-03-06T15:45:16.103Z,0.80
2023-03-06T15:47:48.641Z,0.60
2023-03-06T15:50:22.015Z,0.50
2023-03-06T15:52:54.122Z,0.50
2023-03-06T15:55:26.432Z,0.40
2023-03-06T15:58:02.633Z,0.30
2023-03-06T16:00:35.831Z,0.30
2023-03-06T16:03:10.209Z,0.30
2023-03-06T16:05:44.356Z,0.30
2023-03-06T16:08:16.318Z,0.30
2023-03-06T16:10:48.343Z,0.20
2023-03-06T16:13:25.006Z,0.20
2023-03-06T16:15:56.943Z,0.20
2023-03-06T16:18:28.786Z,0.20
2023-03-06T16:21:00.784Z,0.20
2023-03-06T16:23:32.578Z,0.20
2023-03-06T16:26:06.821Z,0.20
2023-03-06T16:28:41.393Z,0.20
2023-03-06T16:31:13.850Z,0.20
2023-03-06T16:33:48.546Z,0.20
2023-03-06T16:36:23.442Z,0.20
2023-03-06T16:38:55.455Z,0.20
2023-03-06T16:41:27.713Z,0.10
2023-03-06T16:43:59.547Z,0.10
2023-03-06T16:46:31.520Z,0.10
2023-03-06T16:49:03.600Z,0.10
2023-03-06T16:51:39.831Z,0.10
2023-03-06T16:54:11.830Z,0.10
2023-03-06T16:56:46.479Z,0.10
2023-03-06T16:59:18.290Z,0.10
2023-03-06T17:01:50.217Z,0.10
2023-03-06T17:04:22.119Z,0.10
2023-03-06T17:06:53.961Z,0.10
2023-03-06T17:09:25.786Z,0.20
2023-03-06T17:11:57.669Z,0.20
2023-03-06T17:14:29.912Z,0.20
2023-03-06T17:17:01.734Z,0.20
2023-03-06T17:19:33.579Z,0.20
2023-03-06T17:22:05.571Z,0.20
2023-03-06T17:24:39.686Z,0.20
2023-03-06T17:27:11.915Z,0.10
2023-03-06T17:29:43.725Z,0.10
2023-03-06T17:32:15.590Z,0.00
2023-03-06T17:34:47.691Z,-0.10
2023-03-06T17:37:20.238Z,-0.20
2023-03-06T17:39:52.171Z,-0.40
2023-03-06T17:42:24.061Z,-0.50
2023-03-06T17:44:58.162Z,-0.60
2023-03-06T17:47:30.310Z,-0.80
2023-03-06T17:50:02.638Z,-0.90
2023-03-06T17:52:34.503Z,-1.00
2023-03-06T17:55:06.859Z,-1.00
2023-03-06T17:57:38.959Z,-1.10
2023-03-06T18:00:14.714Z,-1.10
2023-03-06T18:02:46.664Z,-1.10
2023-03-06T18:05:20.561Z,-1.20
2023-03-06T18:07:52.974Z,-1.20
2023-03-06T18:10:24.828Z,-1.30
2023-03-06T18:12:56.925Z,-1.40
2023-03-06T18:15:28.731Z,-1.40
2023-03-06T18:18:00.662Z,-1.50
2023-03-06T18:20:33.087Z,-1.50
2023-03-06T18:23:04.938Z,-1.60
2023-03-06T18:25:36.891Z,-1.70
2023-03-06T18:28:08.851Z,-1.70
2023-03-06T18:30:43.530Z,-1.80
2023-03-06T18:33:17.637Z,-1.80
2023-03-06T18:35:49.549Z,-1.90
2023-03-06T18:38:21.343Z,-1.90
2023-03-06T18:40:53.176Z,-1.90
2023-03-06T18:43:27.422Z,-2.00
2023-03-06T18:45:59.278Z,-2.10
2023-03-06T18:48:31.332Z,-2.10
2023-03-06T18:51:10.033Z,-2.20
2023-03-06T18:53:42.918Z,-2.30
2023-03-06T18:56:16.739Z,-2.30
2023-03-06T18:58:48.804Z,-2.40
2023-03-06T19:01:21.231Z,-2.40
2023-03-06T19:03:53.109Z,-2.40
2023-03-06T19:06:26.976Z,-2.50
2023-03-06T19:09:01.581Z,-2.50
2023-03-06T19:11:33.930Z,-2.50
2023-03-06T19:14:08.032Z,-2.50
2023-03-06T19:16:39.969Z,-2.50
2023-03-06T19:19:12.002Z,-2.60
2023-03-06T19:21:43.849Z,-2.60
2023-03-06T19:24:15.775Z,-2.60
2023-03-06T19:26:47.738Z,-2.70
2023-03-06T19:29:19.558Z,-2.70
2023-03-06T19:31:52.392Z,-2.70
2023-03-06T19:34:26.371Z,-2.60
2023-03-06T19:36:58.208Z,-2.60
2023-03-06T19:39:30.219Z,-2.60
2023-03-06T19:42:04.659Z,-2.50
2023-03-06T19:44:36.853Z,-2.50
2023-03-06T19:47:08.664Z,-2.50
2023-03-06T19:49:40.627Z,-2.60
2023-03-06T19:52:12.526Z,-2.60
2023-03-06T19:54:46.966Z,-2.60
2023-03-06T19:57:19.341Z,-2.70
2023-03-06T19:59:51.488Z,-2.70
2023-03-06T20:02:27.311Z,-2.80
2023-03-06T20:04:59.213Z,-2.80
2023-03-06T20:07:33.450Z,-2.90
2023-03-06T20:10:05.494Z,-2.90
2023-03-06T20:12:37.292Z,-3.00
2023-03-06T20:15:09.510Z,-3.10
2023-03-06T20:17:41.420Z,-3.10
2023-03-06T20:20:13.396Z,-3.20
2023-03-06T20:22:45.275Z,-3.20
2023-03-06T20:25:17.210Z,-3.30
2023-03-06T20:27:49.036Z,-3.30
2023-03-06T20:30:20.893Z,-3.40
2023-03-06T20:32:52.820Z,-3.30
2023-03-06T20:35:24.712Z,-3.50
2023-03-06T20:37:56.588Z,-3.50
2023-03-06T20:40:28.434Z,-3.60
2023-03-06T20:43:00.297Z,-3.60
2023-03-06T20:45:32.288Z,-3.70
2023-03-06T20:48:04.042Z,-3.70
2023-03-06T20:50:35.993Z,-3.80
2023-03-06T20:53:07.904Z,-3.80
2023-03-06T20:55:39.824Z,-3.80
2023-03-06T20:58:11.669Z,-3.80
2023-03-06T21:00:45.890Z,-3.80
2023-03-06T21:03:17.775Z,-3.80
2023-03-06T21:05:49.745Z,-3.80
2023-03-06T21:08:23.986Z,-3.80
2023-03-06T21:10:56.005Z,-3.90
2023-03-06T21:13:27.906Z,-3.90
2023-03-06T21:16:05.513Z,-3.90
2023-03-06T21:18:37.425Z,-3.90
2023-03-06T21:21:11.336Z,-3.90
2023-03-06T21:23:47.182Z,-3.80
2023-03-06T21:26:20.620Z,-3.80
2023-03-06T21:28:52.905Z,-3.80
2023-03-06T21:31:25.170Z,-3.80
2023-03-06T21:33:59.019Z,-3.70
2023-03-06T21:36:31.078Z,-3.70
2023-03-06T21:39:06.341Z,-3.70
2023-03-06T21:41:39.621Z,-3.70
2023-03-06T21:44:11.599Z,-3.70
2023-03-06T21:46:45.829Z,-3.80
2023-03-06T21:49:19.340Z,-3.70
2023-03-06T21:51:53.130Z,-3.80
2023-03-06T21:54:29.614Z,-3.80
2023-03-06T21:57:03.861Z,-3.80
2023-03-06T21:59:36.482Z,-3.80
2023-03-06T22:02:10.024Z,-3.80
2023-03-06T22:04:41.879Z,-3.80
2023-03-06T22:07:14.048Z,-3.80
2023-03-06T22:09:46.237Z,-3.80
2023-03-06T22:12:18.165Z,-3.80
2023-03-06T22:14:50.098Z,-3.80
2023-03-06T22:17:22.133Z,-3.90
2023-03-06T22:19:54.057Z,-3.90
2023-03-06T22:22:26.125Z,-3.80
2023-03-06T22:24:58.574Z,-3.80
2023-03-06T22:27:31.233Z,-3.80
2023-03-06T22:30:03.193Z,-3.80
2023-03-06T22:32:35.069Z,-3.80
2023-03-06T22:35:07.055Z,-3.80
2023-03-06T22:37:38.944Z,-3.90
2023-03-06T22:40:11.100Z,-3.80
2023-03-06T22:42:42.954Z,-3.90
2023-03-06T22:45:17.231Z,-3.90
2023-03-06T22:47:55.165Z,-3.80
2023-03-06T22:50:29.164Z,-3.90
2023-03-06T22:53:01.411Z,-3.90
2023-03-06T22:55:37.046Z,-3.90
2023-03-06T22:58:08.930Z,-3.90
2023-03-06T23:00:40.830Z,-3.90
2023-03-06T23:03:12.682Z,-3.90
2023-03-06T23:05:44.449Z,-3.90
2023-03-06T23:08:18.355Z,-4.00
2023-03-06T23:10:50.170Z,-4.00
2023-03-06T23:13:22.218Z,-4.00
2023-03-06T23:15:56.729Z,-3.90
2023-03-06T23:18:31.489Z,-4.00
2023-03-06T23:21:10.419Z,-3.90
2023-03-06T23:23:44.202Z,-3.90
2023-03-06T23:26:16.640Z,-3.90
2023-03-06T23:28:48.566Z,-3.90
2023-03-06T23:31:23.047Z,-4.00
2023-03-06T23:33:58.859Z,-4.00
2023-03-06T23:36:31.285Z,-4.00
2023-03-06T23:39:03.183Z,-4.00
2023-03-06T23:41:34.986Z,-4.00
2023-03-06T23:44:06.852Z,-4.00
2023-03-06T23:46:41.022Z,-4.00
2023-03-06T23:49:12.896Z,-4.00
2023-03-06T23:51:44.721Z,-4.00
2023-03-06T23:54:18.294Z,-4.00
2023-03-06T23:56:50.110Z,-4.00
2023-03-06T23:59:21.991Z,-4.00
